Time;durP1;ratioP1;P1;durP2;ratioP2;P2;SDS_P1;SDS_P2;PMS_P1;PMS_P2;Temp;Humidity;BMP_temperature;BMP_pressure;BME280_temperature;BME280_humidity;BME280_pressure;Samples;Min_cycle;Max_cycle;Signal;HPM_P1;HPM_P2
2022/01/22 00:03:32;;;;;;;8.63;6.50;;;5.50;97.80;;;;;;20919551;28;20691;-60
2022/01/22 00:23:57;;;;;;;8.83;6.37;;;5.30;98.30;;;;;;20917538;28;20289;-60
2022/01/22 00:33:58;;;;;;;8.77;5.70;;;5.30;98.30;;;;;;20917117;28;20259;-58
2022/01/22 00:44:00;;;;;;;9.23;5.87;;;5.40;98.50;;;;;;20915617;28;20707;-69
2022/01/22 00:54:02;;;;;;;8.83;5.63;;;5.30;98.20;;;;;;20915112;28;20212;-61
2022/01/22 01:04:04;;;;;;;8.10;5.53;;;5.30;98.40;;;;;;20914700;28;20235;-62
2022/01/22 01:14:09;;;;;;;9.87;5.60;;;5.30;98.50;;;;;;20905357;28;20713;-61
2022/01/22 01:34:31;;;;;;;10.90;6.57;;;5.40;98.70;;;;;;20919356;28;20663;-62
2022/01/22 01:44:33;;;;;;;10.10;6.80;;;5.40;98.70;;;;;;20912478;28;20294;-61
2022/01/22 02:04:37;;;;;;;13.07;8.07;;;5.40;98.80;;;;;;20911744;28;20266;-59
2022/01/22 02:24:40;;;;;;;14.17;8.77;;;5.50;98.40;;;;;;20910771;28;20572;-60
2022/01/22 02:34:58;;;;;;;13.93;7.17;;;5.50;98.60;;;;;;20922292;28;20729;-60
2022/01/22 02:44:59;;;;;;;11.27;6.93;;;5.70;98.40;;;;;;20925240;28;20350;-67
2022/01/22 02:55:05;;;;;;;12.83;7.13;;;5.60;98.30;;;;;;20924565;28;20260;-69
2022/01/22 03:05:07;;;;;;;12.43;6.70;;;5.70;97.70;;;;;;20924060;28;20301;-68
2022/01/22 03:35:55;;;;;;;8.77;5.70;;;5.60;97.60;;;;;;20839393;28;20266;-68
2022/01/22 03:45:57;;;;;;;9.93;5.33;;;5.60;97.20;;;;;;20838211;28;20237;-61
2022/01/22 03:56:03;;;;;;;11.67;5.00;;;5.50;97.40;;;;;;20837599;28;20266;-60
2022/01/22 04:16:12;;;;;;;8.50;4.07;;;5.70;96.70;;;;;;20836441;28;20658;-60
2022/01/22 04:36:16;;;;;;;6.90;3.93;;;5.70;96.50;;;;;;20834275;28;20206;-59
2022/01/22 04:46:26;;;;;;;7.37;4.50;;;5.70;96.50;;;;;;20833505;28;20251;-60
2022/01/22 04:56:28;;;;;;;8.20;3.80;;;5.70;96.00;;;;;;20832258;28;20275;-60
2022/01/22 05:06:30;;;;;;;7.87;4.40;;;5.70;96.30;;;;;;20834221;28;20704;-61
2022/01/22 05:16:32;;;;;;;8.07;4.17;;;5.60;96.10;;;;;;20831840;28;20218;-59
2022/01/22 05:47:03;;;;;;;5.93;3.90;;;5.60;96.40;;;;;;20829925;28;20274;-67
2022/01/22 06:07:26;;;;;;;5.57;3.80;;;5.60;96.20;;;;;;20837781;28;20242;-58
2022/01/22 06:17:27;;;;;;;5.93;3.90;;;5.70;96.30;;;;;;20845542;28;20260;-60
2022/01/22 06:27:30;;;;;;;7.53;4.43;;;5.80;96.40;;;;;;20844721;28;20634;-59
2022/01/22 06:37:32;;;;;;;6.30;4.27;;;5.80;96.60;;;;;;20843568;28;20211;-60
2022/01/22 06:47:34;;;;;;;7.10;4.97;;;5.80;96.70;;;;;;20843055;28;20245;-61
2022/01/22 06:57:35;;;;;;;8.13;4.80;;;5.80;96.40;;;;;;20841666;28;20201;-60
2022/01/22 07:07:37;;;;;;;8.40;4.10;;;5.70;96.40;;;;;;20840541;28;20282;-61
2022/01/22 07:17:40;;;;;;;7.20;5.30;;;5.80;96.60;;;;;;20838076;28;20209;-59
2022/01/22 07:27:42;;;;;;;8.53;5.27;;;5.80;96.80;;;;;;20838290;28;20236;-61
2022/01/22 07:37:43;;;;;;;7.57;4.97;;;5.70;96.70;;;;;;20839044;28;20601;-59
2022/01/22 07:47:45;;;;;;;9.80;5.33;;;5.60;97.00;;;;;;20838269;28;20257;-66
2022/01/22 07:57:47;;;;;;;9.73;5.33;;;5.70;97.20;;;;;;20837176;28;20211;-60
2022/01/22 08:07:49;;;;;;;9.80;5.20;;;5.70;97.10;;;;;;20834332;28;20284;-64
2022/01/22 08:17:51;;;;;;;9.73;5.67;;;5.70;97.10;;;;;;20835262;28;20205;-62
2022/01/22 08:38:07;;;;;;;8.77;6.57;;;5.80;97.50;;;;;;20848114;28;20438;-63
2022/01/22 08:48:08;;;;;;;7.50;5.70;;;5.90;97.90;;;;;;20955229;28;20356;-61
2022/01/22 08:58:10;;;;;;;8.30;5.97;;;5.80;97.90;;;;;;20962812;28;20208;-59
2022/01/22 09:08:15;;;;;;;8.77;5.87;;;5.90;98.10;;;;;;20914231;28;20240;-60
2022/01/22 09:18:17;;;;;;;7.00;5.27;;;5.90;97.90;;;;;;20948205;28;20209;-61
2022/01/22 09:28:19;;;;;;;8.83;6.60;;;5.90;98.30;;;;;;20951226;28;20301;-63
2022/01/22 09:38:21;;;;;;;11.03;6.03;;;6.00;98.40;;;;;;20912472;28;20732;-63
2022/01/22 09:48:22;;;;;;;8.63;6.40;;;6.00;97.90;;;;;;20915848;28;20290;-62
2022/01/22 09:58:24;;;;;;;11.23;6.77;;;6.00;98.20;;;;;;20992168;28;20265;-63
2022/01/22 10:08:35;;;;;;;9.73;6.60;;;6.20;98.00;;;;;;20992983;28;20236;-63
2022/01/22 10:18:37;;;;;;;12.53;6.00;;;6.20;98.30;;;;;;20994148;28;20564;-64
2022/01/22 10:28:45;;;;;;;9.90;6.40;;;6.20;98.20;;;;;;20995996;28;20235;-66
2022/01/22 10:38:52;;;;;;;11.73;7.00;;;6.30;98.10;;;;;;20997021;28;20209;-61
2022/01/22 10:48:55;;;;;;;10.17;7.20;;;6.30;98.10;;;;;;20963778;28;20249;-61
2022/01/22 10:59:08;;;;;;;8.87;6.07;;;6.30;98.10;;;;;;20927265;28;20214;-72
2022/01/22 11:09:10;;;;;;;9.23;6.87;;;6.40;98.10;;;;;;20925986;28;20268;-70
2022/01/22 11:19:18;;;;;;;7.50;5.93;;;6.50;97.80;;;;;;20923362;28;20214;-66
2022/01/22 11:29:29;;;;;;;7.67;5.87;;;6.60;98.10;;;;;;20922046;28;20296;-64
2022/01/22 11:39:31;;;;;;;7.00;5.90;;;6.70;97.90;;;;;;20917490;28;20215;-69
2022/01/22 11:49:34;;;;;;;7.07;6.00;;;6.80;97.70;;;;;;20919435;28;20308;-75
2022/01/22 11:59:36;;;;;;;8.27;6.07;;;6.80;97.70;;;;;;20918943;28;20280;-63
2022/01/22 12:30:01;;;;;;;7.23;6.17;;;6.80;97.70;;;;;;20917829;28;20245;-64
2022/01/22 12:40:06;;;;;;;6.30;5.23;;;6.80;97.80;;;;;;20916894;28;20206;-66
2022/01/22 12:50:11;;;;;;;7.33;5.30;;;6.90;97.80;;;;;;20958280;28;20727;-62
2022/01/22 13:00:16;;;;;;;6.07;5.30;;;7.00;97.70;;;;;;20943232;28;20210;-62
2022/01/22 13:10:22;;;;;;;6.73;4.97;;;7.10;97.60;;;;;;20913760;28;20698;-63
2022/01/22 13:20:26;;;;;;;6.37;4.87;;;7.10;97.60;;;;;;20913389;28;20263;-76
2022/01/22 13:30:39;;;;;;;6.50;4.63;;;7.00;97.30;;;;;;20913203;28;20269;-61
2022/01/22 13:51:02;;;;;;;8.50;4.80;;;7.10;97.00;;;;;;20919901;28;20608;-61
2022/01/22 14:01:51;;;;;;;6.00;4.77;;;7.10;97.10;;;;;;20909962;28;20207;-70
2022/01/22 14:12:10;;;;;;;6.00;4.70;;;7.10;97.30;;;;;;20911227;28;20664;-63
2022/01/22 14:22:12;;;;;;;5.83;4.73;;;7.10;97.20;;;;;;20904640;28;20537;-63
2022/01/22 14:32:17;;;;;;;6.40;5.23;;;7.20;97.10;;;;;;20921124;28;20210;-62
2022/01/22 14:52:41;;;;;;;6.67;4.93;;;7.10;97.20;;;;;;20986726;28;20259;-66
2022/01/22 15:02:44;;;;;;;6.43;5.00;;;7.20;97.10;;;;;;21007120;28;20330;-61
2022/01/22 15:12:46;;;;;;;6.47;5.03;;;7.10;97.00;;;;;;21006035;28;20207;-62
2022/01/22 15:23:04;;;;;;;7.13;5.23;;;7.20;97.00;;;;;;21006741;28;20239;-63
2022/01/22 15:43:16;;;;;;;6.10;4.70;;;7.10;96.90;;;;;;21003307;28;20246;-61
2022/01/22 15:53:18;;;;;;;6.40;4.83;;;7.10;96.90;;;;;;20935307;28;20210;-62
2022/01/22 16:03:19;;;;;;;7.07;5.00;;;7.20;96.40;;;;;;20919397;28;20258;-60
2022/01/22 16:13:23;;;;;;;6.23;4.87;;;7.20;96.30;;;;;;20918183;28;20210;-61
2022/01/22 16:23:25;;;;;;;6.50;4.70;;;7.30;96.20;;;;;;20902233;28;20695;-61
2022/01/22 16:33:28;;;;;;;7.67;4.83;;;7.20;96.50;;;;;;20832449;28;20205;-62
2022/01/22 16:43:35;;;;;;;6.93;5.07;;;7.20;96.50;;;;;;20833851;28;20296;-64
2022/01/22 17:03:59;;;;;;;9.50;6.43;;;7.30;96.40;;;;;;20859216;28;20245;-66
2022/01/22 17:14:12;;;;;;;8.23;6.33;;;7.30;96.30;;;;;;20914019;28;20211;-62
2022/01/22 17:24:14;;;;;;;9.67;7.43;;;7.20;96.50;;;;;;20912918;28;20232;-61
2022/01/22 17:34:15;;;;;;;11.03;8.03;;;7.00;96.80;;;;;;20912529;28;20611;-64
2022/01/22 17:44:32;;;;;;;8.20;6.23;;;7.00;97.10;;;;;;20912044;28;20940;-64
2022/01/22 17:54:34;;;;;;;9.10;6.67;;;7.10;97.30;;;;;;20934267;28;20604;-64
2022/01/22 18:04:36;;;;;;;10.27;7.50;;;7.10;97.50;;;;;;20931814;28;20280;-63
2022/01/22 18:14:38;;;;;;;10.73;7.03;;;7.10;97.60;;;;;;20927455;28;20210;-64
2022/01/22 18:24:40;;;;;;;11.17;8.33;;;7.10;97.70;;;;;;20910777;28;20505;-64
2022/01/22 18:34:43;;;;;;;13.77;8.97;;;7.10;97.90;;;;;;20841364;28;20203;-60
2022/01/22 18:44:50;;;;;;;11.37;8.77;;;7.20;97.80;;;;;;20873208;28;20297;-65
2022/01/22 18:54:53;;;;;;;10.87;8.17;;;7.20;97.70;;;;;;20859386;28;20619;-64
2022/01/22 19:04:54;;;;;;;12.47;8.50;;;7.10;97.30;;;;;;20823090;28;20951;-62
2022/01/22 19:14:56;;;;;;;10.83;8.30;;;7.10;97.60;;;;;;20839315;28;20604;-77
2022/01/22 19:25:25;;;;;;;12.20;8.00;;;7.10;97.50;;;;;;20840849;28;20233;-73
2022/01/22 19:35:22;;;;;;;9.43;7.57;;;7.20;98.10;;;;;;20839844;28;20604;-75
2022/01/22 19:45:24;;;;;;;11.10;7.97;;;7.10;97.60;;;;;;20839018;28;20246;-73
2022/01/22 19:55:27;;;;;;;11.37;8.20;;;7.10;97.50;;;;;;20838105;28;20206;-76
2022/01/22 20:05:29;;;;;;;14.17;9.13;;;7.10;97.40;;;;;;20860975;28;20237;-77
2022/01/22 20:15:31;;;;;;;11.30;8.40;;;7.20;97.40;;;;;;20838088;28;20210;-76
2022/01/22 20:25:33;;;;;;;12.77;9.00;;;7.20;97.70;;;;;;20834459;28;20298;-68
2022/01/22 20:35:35;;;;;;;13.63;9.40;;;7.20;97.60;;;;;;20832273;28;20667;-77
2022/01/22 20:45:37;;;;;;;10.33;7.97;;;7.20;97.60;;;;;;20834247;28;20245;-77
2022/01/22 20:55:41;;;;;;;9.87;7.87;;;7.20;97.60;;;;;;20830449;28;20215;-74
2022/01/22 21:05:43;;;;;;;12.40;8.23;;;7.20;97.60;;;;;;20830823;28;20640;-76
2022/01/22 21:15:45;;;;;;;11.47;8.00;;;7.10;97.30;;;;;;20830202;28;20241;-78
2022/01/22 21:25:48;;;;;;;10.77;7.80;;;7.10;97.60;;;;;;20829077;28;20259;-78
2022/01/22 21:35:55;;;;;;;11.77;8.50;;;7.00;97.50;;;;;;20828320;28;20213;-78
2022/01/22 21:45:57;;;;;;;12.60;9.07;;;7.00;97.80;;;;;;20827982;28;20244;-70
2022/01/22 21:56:03;;;;;;;12.87;8.70;;;7.00;97.70;;;;;;20827525;28;20210;-81
2022/01/22 22:06:05;;;;;;;13.77;9.87;;;7.00;98.00;;;;;;20827106;28;20278;-79
2022/01/22 22:16:08;;;;;;;14.70;9.30;;;7.00;98.20;;;;;;20827107;28;20681;-80
2022/01/22 22:26:14;;;;;;;13.03;8.67;;;7.00;98.10;;;;;;20825794;28;20245;-79
2022/01/22 22:36:17;;;;;;;12.60;8.93;;;7.00;98.10;;;;;;20823924;28;20209;-76
2022/01/22 22:46:19;;;;;;;16.47;9.73;;;7.00;98.40;;;;;;20829695;28;20713;-61
2022/01/22 22:56:21;;;;;;;15.10;8.67;;;6.90;98.20;;;;;;20844262;28;20606;-60
2022/01/22 23:06:23;;;;;;;11.40;8.00;;;6.90;98.40;;;;;;20842659;28;20706;-78
2022/01/22 23:16:46;;;;;;;12.63;8.13;;;6.90;98.70;;;;;;20841455;28;20272;-78
2022/01/22 23:26:47;;;;;;;11.27;8.47;;;6.90;98.10;;;;;;20840460;28;20642;-73
2022/01/22 23:37:20;;;;;;;16.23;9.63;;;6.90;98.40;;;;;;20839574;28;20272;-77
